createdAt,value
2023-02-22T06:31:20.756Z,11.30
2023-02-22T06:33:48.010Z,12.02
2023-02-22T06:36:15.235Z,13.38
2023-02-22T06:38:43.235Z,21.85
2023-02-22T06:41:10.388Z,11.68
2023-02-22T06:43:37.583Z,13.77
2023-02-22T06:46:05.152Z,9.75
2023-02-22T06:48:33.650Z,10.10
2023-02-22T06:51:00.795Z,8.88
2023-02-22T06:53:27.967Z,8.98
2023-02-22T06:55:55.445Z,8.20
2023-02-22T06:58:23.185Z,9.45
2023-02-22T07:00:50.415Z,7.97
2023-02-22T07:03:17.685Z,10.23
2023-02-22T07:05:44.944Z,15.70
2023-02-22T07:08:12.576Z,10.77
2023-02-22T07:10:41.194Z,11.95
2023-02-22T07:13:08.953Z,11.50
2023-02-22T07:15:36.085Z,15.45
2023-02-22T07:18:03.351Z,7.13
2023-02-22T07:20:31.671Z,8.40
2023-02-22T07:22:59.973Z,7.28
2023-02-22T07:25:27.225Z,11.68
2023-02-22T07:27:54.455Z,8.02
2023-02-22T07:30:26.054Z,11.82
2023-02-22T07:32:55.171Z,11.35
2023-02-22T07:35:37.183Z,11.45
2023-02-22T07:38:08.730Z,10.55
2023-02-22T07:40:37.697Z,6.05
2023-02-22T07:43:13.934Z,9.88
2023-02-22T07:45:41.636Z,6.55
2023-02-22T07:48:09.277Z,10.88
2023-02-22T07:50:36.434Z,5.30
2023-02-22T07:53:06.361Z,12.80
2023-02-22T07:55:34.308Z,7.60
2023-02-22T07:58:05.239Z,10.32
2023-02-22T08:00:39.249Z,10.23
2023-02-22T08:03:09.336Z,9.48
2023-02-22T08:05:38.913Z,10.68
2023-02-22T08:08:07.781Z,10.43
2023-02-22T08:10:36.127Z,7.38
2023-02-22T08:13:05.178Z,5.07
2023-02-22T08:15:34.905Z,18.73
2023-02-22T08:18:04.259Z,5.32
2023-02-22T08:20:31.915Z,8.32
2023-02-22T08:22:59.059Z,54.90
2023-02-22T08:25:28.911Z,53.63
2023-02-22T08:28:02.403Z,33.60
2023-02-22T08:30:31.547Z,10.77
2023-02-22T08:32:59.992Z,4.63
2023-02-22T08:35:34.871Z,8.43
2023-02-22T08:38:05.369Z,6.60
2023-02-22T08:40:35.592Z,10.25
2023-02-22T08:43:04.491Z,7.85
2023-02-22T08:45:31.916Z,7.93
2023-02-22T08:47:59.498Z,9.80
2023-02-22T08:50:29.527Z,6.97
2023-02-22T08:52:59.452Z,5.03
2023-02-22T08:55:30.101Z,5.88
2023-02-22T08:57:57.437Z,8.60
2023-02-22T09:00:25.328Z,3.78
2023-02-22T09:02:53.111Z,4.60
2023-02-22T09:05:20.537Z,11.90
2023-02-22T09:07:48.644Z,6.43
2023-02-22T09:10:24.435Z,8.50
2023-02-22T09:12:55.373Z,8.88
2023-02-22T09:15:24.215Z,6.70
2023-02-22T09:17:51.843Z,9.57
2023-02-22T09:20:21.099Z,7.93
2023-02-22T09:22:49.454Z,7.00
2023-02-22T09:25:18.248Z,9.02
2023-02-22T09:27:57.404Z,6.78
2023-02-22T09:30:33.720Z,10.15
2023-02-22T09:33:04.127Z,8.75
2023-02-22T09:35:35.956Z,7.13
2023-02-22T09:38:06.555Z,9.07
2023-02-22T09:40:41.137Z,7.03
2023-02-22T09:43:31.204Z,8.55
2023-02-22T09:46:21.030Z,6.25
2023-02-22T09:49:16.151Z,5.35
2023-02-22T09:51:52.629Z,7.53
2023-02-22T09:54:26.914Z,6.85
2023-02-22T09:56:58.326Z,9.65
2023-02-22T09:59:31.537Z,9.35
2023-02-22T10:02:16.199Z,13.25
2023-02-22T10:04:52.825Z,5.88
2023-02-22T10:07:32.106Z,17.23
2023-02-22T10:10:06.361Z,8.48
2023-02-22T10:12:48.519Z,8.73
2023-02-22T10:15:34.594Z,11.13
2023-02-22T10:18:55.136Z,8.07
2023-02-22T10:21:30.859Z,15.00
2023-02-22T10:24:23.552Z,11.00
2023-02-22T10:26:54.134Z,10.52
2023-02-22T10:29:41.535Z,19.55
2023-02-22T10:32:17.792Z,8.23
2023-02-22T10:34:51.461Z,11.60
2023-02-22T10:37:43.390Z,13.25
2023-02-22T10:40:22.863Z,10.02
2023-02-22T10:42:50.712Z,10.27
2023-02-22T10:45:21.245Z,18.83
2023-02-22T10:47:49.777Z,8.90
2023-02-22T10:50:17.347Z,11.93
2023-02-22T10:52:44.476Z,12.15
2023-02-22T10:55:16.148Z,11.60
2023-02-22T10:57:49.700Z,15.17
2023-02-22T11:00:38.736Z,13.95
2023-02-22T11:03:21.039Z,7.28
2023-02-22T11:05:49.401Z,10.75
2023-02-22T11:08:30.595Z,16.52
2023-02-22T11:11:02.247Z,12.65
2023-02-22T11:13:33.686Z,14.82
2023-02-22T11:16:17.880Z,20.35
2023-02-22T11:18:47.252Z,15.32
2023-02-22T11:21:22.694Z,13.70
2023-02-22T11:24:00.645Z,11.75
2023-02-22T11:26:28.630Z,12.10
2023-02-22T11:28:56.716Z,10.00
2023-02-22T11:31:27.243Z,10.82
2023-02-22T11:34:00.164Z,11.57
2023-02-22T11:39:24.945Z,14.27
2023-02-22T11:41:52.674Z,10.90
2023-02-22T11:44:30.243Z,13.77
2023-02-22T11:47:06.781Z,10.18
2023-02-22T11:49:38.280Z,15.82
2023-02-22T11:52:37.403Z,9.20
2023-02-22T11:55:36.476Z,13.55
2023-02-22T11:58:37.208Z,15.63
2023-02-22T12:01:29.444Z,11.63
2023-02-22T12:04:42.043Z,11.00
2023-02-22T12:07:29.998Z,11.45
2023-02-22T12:10:13.698Z,13.50
2023-02-22T12:13:05.316Z,13.35
2023-02-22T12:15:44.623Z,12.13
2023-02-22T12:18:32.683Z,11.80
2023-02-22T12:21:08.045Z,15.02
2023-02-22T12:23:40.629Z,11.57
2023-02-22T12:26:16.625Z,11.48
2023-02-22T12:28:59.261Z,16.23
2023-02-22T12:31:34.035Z,14.40
2023-02-22T12:34:15.751Z,15.07
2023-02-22T12:36:48.475Z,10.70
2023-02-22T12:39:36.003Z,13.02
2023-02-22T12:42:14.218Z,9.07
2023-02-22T12:44:45.132Z,11.57
2023-02-22T12:47:21.405Z,11.02
2023-02-22T12:50:03.267Z,14.00
2023-02-22T12:52:44.858Z,11.60
2023-02-22T12:55:18.035Z,15.20
2023-02-22T12:58:14.208Z,12.55
2023-02-22T13:00:50.941Z,14.77
2023-02-22T13:03:38.480Z,12.35
2023-02-22T13:06:08.579Z,14.52
2023-02-22T13:08:46.123Z,11.13
2023-02-22T13:11:22.514Z,12.68
2023-02-22T13:14:07.811Z,18.63
2023-02-22T13:16:53.259Z,8.93
2023-02-22T13:19:41.824Z,15.40
2023-02-22T13:22:29.221Z,11.75
2023-02-22T13:25:09.235Z,8.73
2023-02-22T13:27:49.061Z,11.60
2023-02-22T13:30:22.296Z,16.83
2023-02-22T13:33:03.056Z,10.23
2023-02-22T13:35:35.491Z,12.57
2023-02-22T13:38:23.690Z,10.90
2023-02-22T13:41:19.898Z,11.85
2023-02-22T13:44:21.064Z,10.93
2023-02-22T13:47:20.620Z,11.18
2023-02-22T13:50:02.485Z,11.68
2023-02-22T13:52:31.875Z,12.85
2023-02-22T13:55:03.451Z,15.60
2023-02-22T13:57:41.726Z,13.27
2023-02-22T14:00:15.038Z,10.30
2023-02-22T14:03:01.467Z,15.15
2023-02-22T14:05:42.359Z,16.95
2023-02-22T14:08:31.630Z,15.43
2023-02-22T14:10:59.252Z,13.02
2023-02-22T14:14:00.897Z,17.55
2023-02-22T14:16:30.816Z,15.15
2023-02-22T14:19:14.490Z,18.77
2023-02-22T14:22:03.409Z,14.77
2023-02-22T14:24:45.704Z,25.17
2023-02-22T14:27:14.506Z,14.82
2023-02-22T14:29:54.049Z,15.40
2023-02-22T14:32:31.838Z,14.38
2023-02-22T14:35:27.569Z,19.48
2023-02-22T14:38:01.275Z,16.13
2023-02-22T14:40:32.530Z,15.85
2023-02-22T14:43:12.549Z,16.35
2023-02-22T14:46:13.328Z,14.93
2023-02-22T14:48:42.943Z,15.57
2023-02-22T14:51:44.204Z,22.55
2023-02-22T14:54:28.661Z,16.25
2023-02-22T14:57:14.822Z,21.02
2023-02-22T14:59:57.757Z,17.90
2023-02-22T15:02:26.160Z,23.05
2023-02-22T15:04:55.805Z,18.00
2023-02-22T15:07:29.795Z,13.65
2023-02-22T15:10:20.560Z,18.83
2023-02-22T15:13:09.215Z,18.13
2023-02-22T15:15:48.211Z,13.70
2023-02-22T15:18:39.809Z,16.67
2023-02-22T15:21:10.976Z,16.80
2023-02-22T15:23:42.800Z,14.13
2023-02-22T15:26:30.985Z,20.95
2023-02-22T15:28:59.761Z,22.92
2023-02-22T15:31:32.026Z,25.55
2023-02-22T15:34:12.904Z,17.35
2023-02-22T15:36:41.589Z,22.42
2023-02-22T15:39:29.561Z,20.05
2023-02-22T15:42:19.358Z,23.13
2023-02-22T15:44:55.742Z,28.90
2023-02-22T15:47:32.343Z,20.90
2023-02-22T15:50:23.343Z,15.65
2023-02-22T15:52:58.050Z,16.67
2023-02-22T15:55:29.642Z,16.20
2023-02-22T15:58:01.717Z,21.73
2023-02-22T16:00:36.391Z,17.13
2023-02-22T16:03:14.313Z,18.70
2023-02-22T16:05:44.062Z,17.55
2023-02-22T16:08:45.777Z,23.05
2023-02-22T16:11:32.649Z,19.92
2023-02-22T16:14:04.860Z,30.60
2023-02-22T16:16:41.588Z,22.88
2023-02-22T16:19:32.808Z,17.60
2023-02-22T16:22:06.384Z,21.27
2023-02-22T16:24:35.583Z,20.67
2023-02-22T16:27:18.825Z,22.33
2023-02-22T16:32:55.078Z,22.33
2023-02-22T16:35:28.567Z,22.00
2023-02-22T16:38:07.711Z,21.00
2023-02-22T16:40:47.089Z,18.50
2023-02-22T16:43:17.160Z,20.58
2023-02-22T16:45:44.595Z,22.05
2023-02-22T16:48:26.428Z,23.05
2023-02-22T16:50:56.637Z,19.60
2023-02-22T16:53:26.709Z,29.80
2023-02-22T16:56:00.757Z,22.95
2023-02-22T16:58:29.349Z,19.40
